Terminal Aerodrome Forecast
Issued by NWS

Home | Current Version | Previous Version | Graphics & Text | Print | Product List | Glossary On
Versions: 1 2 3 4 5 6 7 8 9 10 11 12 13 14 15 16 17
000
FTUS43 KMPX 022336
TAFAXN
TAF
KAXN 022336Z 0300/0324 17012KT P6SM SCT050 BKN250
     FM030200 19007KT P6SM BKN050 OVC120
      TEMPO 0302/0304 5SM -SHRA
     FM030500 20006KT P6SM SCT060 BKN100
     FM031400 29008KT P6SM VCSH SCT020 BKN050
     FM031700 34014G20KT P6SM SCT060=

USA.gov is the U.S. government's official web portal to all federal, state and local government web resources and services.